Time;durP1;ratioP1;P1;durP2;ratioP2;P2;SDS_P1;SDS_P2;PMS_P1;PMS_P2;Temp;Humidity;BMP_temperature;BMP_pressure;BME280_temperature;BME280_humidity;BME280_pressure;Samples;Min_cycle;Max_cycle;Signal;HPM_P1;HPM_P2
2023/07/14 00:01:28;;;;;;;7.65;6.55;;;;;;;;;;6212359;23;20017;-62
2023/07/14 00:03:54;;;;;;;8.32;6.30;;;;;;;;;;6212516;23;20013;-62
2023/07/14 00:06:20;;;;;;;8.80;6.43;;;;;;;;;;6212201;23;20320;-62
2023/07/14 00:08:47;;;;;;;9.88;6.50;;;;;;;;;;6212636;23;20487;-62
2023/07/14 00:11:21;;;;;;;8.35;7.22;;;;;;;;;;6211945;23;20023;-62
2023/07/14 00:13:47;;;;;;;11.05;7.00;;;;;;;;;;6212216;23;20024;-62
2023/07/14 00:16:16;;;;;;;11.38;7.70;;;;;;;;;;6212552;23;20469;-62
2023/07/14 00:18:43;;;;;;;9.77;6.82;;;;;;;;;;6212592;23;20049;-62
2023/07/14 00:21:16;;;;;;;10.65;8.07;;;;;;;;;;6212052;23;20067;-62
2023/07/14 00:23:43;;;;;;;10.38;7.47;;;;;;;;;;6212379;23;20020;-62
2023/07/14 00:26:13;;;;;;;10.88;8.15;;;;;;;;;;6212092;23;20017;-62
2023/07/14 00:28:39;;;;;;;10.90;7.93;;;;;;;;;;6211835;23;20063;-62
2023/07/14 00:31:05;;;;;;;10.07;8.30;;;;;;;;;;6212565;23;20493;-62
2023/07/14 00:33:31;;;;;;;13.75;8.88;;;;;;;;;;6212362;23;20432;-62
2023/07/14 00:35:57;;;;;;;10.55;7.85;;;;;;;;;;6211527;23;20071;-62
2023/07/14 00:38:23;;;;;;;12.82;8.95;;;;;;;;;;6211939;23;20613;-62
2023/07/14 00:40:49;;;;;;;12.45;8.68;;;;;;;;;;6213465;23;20016;-62
2023/07/14 00:43:20;;;;;;;12.05;9.43;;;;;;;;;;6213747;23;20451;-62
2023/07/14 00:45:48;;;;;;;13.13;9.48;;;;;;;;;;6214056;23;20063;-62
2023/07/14 00:48:19;;;;;;;12.40;9.18;;;;;;;;;;6214221;23;20059;-62
2023/07/14 00:50:54;;;;;;;11.17;8.87;;;;;;;;;;6213745;23;20013;-62
2023/07/14 00:53:26;;;;;;;12.27;8.85;;;;;;;;;;6214001;23;20343;-62
2023/07/14 00:55:52;;;;;;;12.55;9.15;;;;;;;;;;6187248;23;20328;-62
2023/07/14 00:58:26;;;;;;;11.63;8.60;;;;;;;;;;6213761;23;20014;-62
2023/07/14 01:01:10;;;;;;;12.27;9.10;;;;;;;;;;6214159;23;20415;-62
2023/07/14 01:03:40;;;;;;;13.23;9.50;;;;;;;;;;6214122;23;20066;-62
2023/07/14 01:06:07;;;;;;;11.73;9.23;;;;;;;;;;6213755;23;20028;-62
2023/07/14 01:08:33;;;;;;;10.65;8.75;;;;;;;;;;6213709;23;20023;-62
2023/07/14 01:11:00;;;;;;;11.82;8.65;;;;;;;;;;6213825;23;20035;-62
2023/07/14 01:13:27;;;;;;;15.85;9.25;;;;;;;;;;6213576;23;20016;-62
2023/07/14 01:15:53;;;;;;;11.95;10.27;;;;;;;;;;6214124;23;20012;-62
2023/07/14 01:18:20;;;;;;;11.05;9.10;;;;;;;;;;6214066;23;20455;-62
2023/07/14 01:20:46;;;;;;;14.45;9.82;;;;;;;;;;6213317;23;20074;-62
2023/07/14 01:23:45;;;;;;;11.30;9.63;;;;;;;;;;6213658;23;20017;-62
2023/07/14 01:26:16;;;;;;;13.65;9.52;;;;;;;;;;6147908;23;20146;-62
2023/07/14 01:28:43;;;;;;;11.80;9.07;;;;;;;;;;6213250;23;20336;-62
2023/07/14 01:31:11;;;;;;;12.52;9.07;;;;;;;;;;6214065;23;20020;-62
2023/07/14 01:33:37;;;;;;;14.75;9.80;;;;;;;;;;6213981;23;20085;-62
2023/07/14 01:36:04;;;;;;;13.10;10.15;;;;;;;;;;6212866;23;20020;-62
2023/07/14 01:38:30;;;;;;;11.60;9.45;;;;;;;;;;6213448;23;20051;-62
2023/07/14 01:40:56;;;;;;;15.00;10.63;;;;;;;;;;6213320;23;20020;-62
2023/07/14 01:43:22;;;;;;;13.07;9.80;;;;;;;;;;6212864;23;20367;-62
2023/07/14 01:45:54;;;;;;;11.10;9.52;;;;;;;;;;6213143;23;20102;-62
2023/07/14 01:48:24;;;;;;;14.25;9.60;;;;;;;;;;6213281;23;20026;-62
2023/07/14 01:50:52;;;;;;;14.90;9.82;;;;;;;;;;6212605;23;20063;-62
2023/07/14 01:53:29;;;;;;;13.13;9.70;;;;;;;;;;6212742;23;20023;-62
2023/07/14 01:55:58;;;;;;;13.45;9.32;;;;;;;;;;6213688;23;20044;-62
2023/07/14 01:58:34;;;;;;;14.02;9.65;;;;;;;;;;6213022;23;20056;-62
2023/07/14 02:01:02;;;;;;;11.35;9.13;;;;;;;;;;6213510;23;20020;-62
2023/07/14 02:03:51;;;;;;;12.98;8.82;;;;;;;;;;6213069;23;20290;-62
2023/07/14 02:06:17;;;;;;;13.50;10.00;;;;;;;;;;6197576;23;20016;-62
2023/07/14 02:08:46;;;;;;;13.55;9.68;;;;;;;;;;6213150;23;20020;-62
2023/07/14 02:11:19;;;;;;;10.77;9.13;;;;;;;;;;6212790;23;20080;-62
2023/07/14 02:13:45;;;;;;;13.48;9.07;;;;;;;;;;6213397;23;20335;-62
2023/07/14 02:16:13;;;;;;;13.90;8.88;;;;;;;;;;6213357;23;20016;-62
2023/07/14 02:18:39;;;;;;;13.60;8.48;;;;;;;;;;6212874;23;20047;-62
2023/07/14 02:21:05;;;;;;;12.68;8.93;;;;;;;;;;6213411;23;20387;-62
2023/07/14 02:23:31;;;;;;;14.77;9.05;;;;;;;;;;6213245;23;20016;-62
2023/07/14 02:26:03;;;;;;;13.52;8.07;;;;;;;;;;6212829;23;20331;-62
2023/07/14 02:28:29;;;;;;;12.45;7.68;;;;;;;;;;6213161;23;20020;-62
2023/07/14 02:31:00;;;;;;;10.63;8.00;;;;;;;;;;6213334;23;20020;-62
2023/07/14 02:33:27;;;;;;;17.08;8.40;;;;;;;;;;6212245;23;20672;-62
2023/07/14 02:36:02;;;;;;;13.43;7.50;;;;;;;;;;6212724;23;20016;-62
2023/07/14 02:38:28;;;;;;;10.52;7.72;;;;;;;;;;6213035;23;20507;-62
2023/07/14 02:40:56;;;;;;;10.57;7.45;;;;;;;;;;6212532;23;20404;-62
2023/07/14 02:43:23;;;;;;;13.35;7.97;;;;;;;;;;6212837;23;20071;-62
2023/07/14 02:45:52;;;;;;;12.45;7.07;;;;;;;;;;6213001;23;20035;-62
2023/07/14 02:48:19;;;;;;;11.43;6.95;;;;;;;;;;6212518;23;20051;-62
2023/07/14 02:50:45;;;;;;;12.18;7.90;;;;;;;;;;6213136;23;20087;-62
2023/07/14 02:53:12;;;;;;;13.07;6.93;;;;;;;;;;6212708;23;20021;-62
2023/07/14 02:55:39;;;;;;;10.75;7.30;;;;;;;;;;6212396;23;20019;-62
2023/07/14 02:58:05;;;;;;;9.60;6.78;;;;;;;;;;6212706;23;20032;-62
2023/07/14 03:00:31;;;;;;;12.75;7.43;;;;;;;;;;6212840;23;20019;-62
2023/07/14 03:02:57;;;;;;;11.80;7.05;;;;;;;;;;6212109;23;20016;-62
2023/07/14 03:05:23;;;;;;;10.00;7.00;;;;;;;;;;6212795;23;20466;-62
2023/07/14 03:07:49;;;;;;;11.35;6.93;;;;;;;;;;6212822;23;20052;-62
2023/07/14 03:10:15;;;;;;;11.88;7.72;;;;;;;;;;6212882;23;20455;-62
2023/07/14 03:12:41;;;;;;;10.68;7.07;;;;;;;;;;6212434;23;20058;-62
2023/07/14 03:15:08;;;;;;;10.30;7.05;;;;;;;;;;6212944;23;20020;-62
2023/07/14 03:17:34;;;;;;;11.68;6.70;;;;;;;;;;6212823;23;20555;-62
2023/07/14 03:20:00;;;;;;;10.38;7.20;;;;;;;;;;6212272;23;20091;-62
2023/07/14 03:22:30;;;;;;;13.18;7.13;;;;;;;;;;6212794;23;20028;-62
2023/07/14 03:24:57;;;;;;;13.23;6.80;;;;;;;;;;6212824;23;20023;-62
2023/07/14 03:27:23;;;;;;;14.05;6.72;;;;;;;;;;6212350;23;20017;-62
2023/07/14 03:29:49;;;;;;;14.07;6.65;;;;;;;;;;6212736;23;20416;-62
2023/07/14 03:32:15;;;;;;;10.55;6.68;;;;;;;;;;6212362;23;20012;-62
2023/07/14 03:34:42;;;;;;;8.88;6.20;;;;;;;;;;6211853;23;20012;-62
2023/07/14 03:37:08;;;;;;;11.50;6.95;;;;;;;;;;6212494;23;20024;-62
2023/07/14 03:39:34;;;;;;;12.77;6.80;;;;;;;;;;6212729;23;20016;-62
2023/07/14 03:42:00;;;;;;;10.65;6.47;;;;;;;;;;6212240;23;20063;-62
2023/07/14 03:44:26;;;;;;;11.13;6.75;;;;;;;;;;6212646;23;20013;-62
2023/07/14 03:46:52;;;;;;;13.43;6.68;;;;;;;;;;6212636;23;20052;-62
2023/07/14 03:49:18;;;;;;;10.27;6.88;;;;;;;;;;6212190;23;20051;-62
2023/07/14 03:51:45;;;;;;;9.80;7.20;;;;;;;;;;6212732;23;20593;-62
2023/07/14 03:54:11;;;;;;;11.57;6.95;;;;;;;;;;6212700;23;20475;-62
2023/07/14 03:56:38;;;;;;;11.98;6.78;;;;;;;;;;6211838;23;20023;-62
2023/07/14 03:59:04;;;;;;;10.80;6.78;;;;;;;;;;6212501;23;20094;-62
2023/07/14 04:01:30;;;;;;;13.55;7.20;;;;;;;;;;6212493;23;20012;-62
2023/07/14 04:03:56;;;;;;;12.15;7.35;;;;;;;;;;6212081;23;20017;-62
2023/07/14 04:06:22;;;;;;;11.45;7.38;;;;;;;;;;6212470;23;20017;-62
2023/07/14 04:08:52;;;;;;;11.45;6.88;;;;;;;;;;6212553;23;20424;-62
2023/07/14 04:11:18;;;;;;;12.80;7.63;;;;;;;;;;6211977;23;20020;-62
2023/07/14 04:13:44;;;;;;;11.07;7.28;;;;;;;;;;6212582;23;20035;-62
2023/07/14 04:16:10;;;;;;;10.15;7.35;;;;;;;;;;6214089;23;20017;-62
2023/07/14 04:18:36;;;;;;;10.90;7.13;;;;;;;;;;6214187;23;20455;-62
2023/07/14 04:21:07;;;;;;;11.57;7.10;;;;;;;;;;6214522;23;20147;-62
2023/07/14 04:23:33;;;;;;;11.70;7.15;;;;;;;;;;6214155;23;20024;-62
2023/07/14 04:26:00;;;;;;;12.55;7.03;;;;;;;;;;6214078;23;20423;-62
2023/07/14 04:28:26;;;;;;;9.27;7.05;;;;;;;;;;6214258;23;20531;-62
2023/07/14 04:30:53;;;;;;;9.25;7.20;;;;;;;;;;6214437;23;20313;-62
2023/07/14 04:33:21;;;;;;;15.73;7.63;;;;;;;;;;6213741;23;20024;-62
2023/07/14 04:35:47;;;;;;;11.13;7.35;;;;;;;;;;6213836;23;20016;-62
2023/07/14 04:38:14;;;;;;;11.40;7.97;;;;;;;;;;6214147;23;20022;-62
2023/07/14 04:40:40;;;;;;;10.18;7.25;;;;;;;;;;6213949;23;20068;-62
2023/07/14 04:43:06;;;;;;;8.35;7.03;;;;;;;;;;6214188;23;20099;-62
2023/07/14 04:45:37;;;;;;;9.93;7.00;;;;;;;;;;6214441;23;20021;-62
2023/07/14 04:48:04;;;;;;;10.55;7.63;;;;;;;;;;6213794;23;20025;-62
2023/07/14 04:50:30;;;;;;;12.38;7.60;;;;;;;;;;6214285;23;20179;-62
2023/07/14 04:52:56;;;;;;;11.20;7.53;;;;;;;;;;6214164;23;20020;-62
2023/07/14 04:55:23;;;;;;;9.25;6.93;;;;;;;;;;6213751;23;20012;-62
2023/07/14 04:57:49;;;;;;;11.45;7.15;;;;;;;;;;6214262;23;20024;-62
2023/07/14 05:00:18;;;;;;;13.07;7.60;;;;;;;;;;6214222;23;20012;-62
2023/07/14 05:02:44;;;;;;;12.02;6.97;;;;;;;;;;6213690;23;20020;-62
2023/07/14 05:05:14;;;;;;;10.20;6.97;;;;;;;;;;6214032;23;20016;-62
2023/07/14 05:07:41;;;;;;;12.65;7.35;;;;;;;;;;6213944;23;20368;-62
2023/07/14 05:10:08;;;;;;;12.43;7.45;;;;;;;;;;6213723;23;20016;-62
2023/07/14 05:12:34;;;;;;;9.65;7.40;;;;;;;;;;6214046;23;20008;-62
2023/07/14 05:15:04;;;;;;;12.27;7.00;;;;;;;;;;6213968;23;20020;-62
2023/07/14 05:17:30;;;;;;;9.18;6.85;;;;;;;;;;6213460;23;20391;-62
2023/07/14 05:19:57;;;;;;;9.80;7.15;;;;;;;;;;6213866;23;20016;-62
2023/07/14 05:22:23;;;;;;;11.35;7.70;;;;;;;;;;6213441;23;20091;-62
2023/07/14 05:24:49;;;;;;;11.25;7.13;;;;;;;;;;6213510;23;20012;-62
2023/07/14 05:27:15;;;;;;;10.20;6.88;;;;;;;;;;6213168;23;20395;-62
2023/07/14 05:29:41;;;;;;;11.55;7.32;;;;;;;;;;6214003;23;20052;-62
2023/07/14 05:32:08;;;;;;;12.20;7.22;;;;;;;;;;6213386;23;20020;-62
2023/07/14 05:34:34;;;;;;;11.43;8.32;;;;;;;;;;6213526;23;20420;-62
2023/07/14 05:37:00;;;;;;;13.80;7.95;;;;;;;;;;6213306;23;20016;-62
2023/07/14 05:39:26;;;;;;;12.10;8.18;;;;;;;;;;6213225;23;20020;-62
2023/07/14 05:41:52;;;;;;;10.93;8.00;;;;;;;;;;6213726;23;20016;-62
2023/07/14 05:44:18;;;;;;;11.23;8.25;;;;;;;;;;6213673;23;20012;-62
2023/07/14 05:46:44;;;;;;;10.57;8.48;;;;;;;;;;6213182;23;20013;-62
2023/07/14 05:49:10;;;;;;;11.40;8.02;;;;;;;;;;6213539;23;20021;-62
2023/07/14 05:51:36;;;;;;;11.43;7.97;;;;;;;;;;6213606;23;20062;-62
2023/07/14 05:54:02;;;;;;;14.75;8.48;;;;;;;;;;6213220;23;20019;-62
2023/07/14 05:56:29;;;;;;;11.60;8.50;;;;;;;;;;6213694;23;20010;-62
2023/07/14 05:58:55;;;;;;;13.23;8.50;;;;;;;;;;6213506;23;20106;-62
2023/07/14 06:01:22;;;;;;;14.13;8.65;;;;;;;;;;6213230;23;20017;-62
2023/07/14 06:03:48;;;;;;;15.48;9.50;;;;;;;;;;6212832;23;20067;-62
2023/07/14 06:06:14;;;;;;;20.25;10.95;;;;;;;;;;6213577;23;20017;-62
2023/07/14 06:08:40;;;;;;;13.85;9.20;;;;;;;;;;6212760;23;20355;-62
2023/07/14 06:11:06;;;;;;;12.73;9.05;;;;;;;;;;6212035;23;20087;-63
2023/07/14 06:13:33;;;;;;;16.05;10.00;;;;;;;;;;6212218;23;20360;-64
2023/07/14 06:15:59;;;;;;;12.90;9.50;;;;;;;;;;6212886;23;20079;-64
2023/07/14 06:18:26;;;;;;;13.55;9.90;;;;;;;;;;6213837;23;20027;-64
2023/07/14 06:20:52;;;;;;;16.55;10.25;;;;;;;;;;6213681;23;20092;-64
2023/07/14 06:23:18;;;;;;;16.10;9.40;;;;;;;;;;6212357;23;20131;-64
2023/07/14 06:25:44;;;;;;;13.30;8.98;;;;;;;;;;6213548;23;20024;-64
2023/07/14 06:28:10;;;;;;;16.92;9.48;;;;;;;;;;6207685;23;20017;-67
2023/07/14 06:30:37;;;;;;;16.52;9.38;;;;;;;;;;6201267;23;20109;-70
2023/07/14 06:33:03;;;;;;;16.23;9.82;;;;;;;;;;6183289;23;20024;-66
2023/07/14 06:35:29;;;;;;;13.00;9.68;;;;;;;;;;6208672;23;20402;-69
2023/07/14 06:37:58;;;;;;;15.80;9.93;;;;;;;;;;6208431;23;20020;-68
2023/07/14 06:40:25;;;;;;;18.63;9.20;;;;;;;;;;6208653;23;20087;-68
2023/07/14 06:42:51;;;;;;;13.98;8.63;;;;;;;;;;6211676;23;20099;-70
2023/07/14 06:45:17;;;;;;;13.52;8.10;;;;;;;;;;6184484;23;20085;-68
2023/07/14 06:47:43;;;;;;;14.90;9.43;;;;;;;;;;6182282;23;20031;-68
2023/07/14 06:50:10;;;;;;;12.52;9.63;;;;;;;;;;6211421;23;20013;-66
2023/07/14 06:52:37;;;;;;;16.95;9.48;;;;;;;;;;6211236;23;20107;-67
2023/07/14 06:55:04;;;;;;;11.68;9.55;;;;;;;;;;6211609;23;20142;-66
2023/07/14 06:57:30;;;;;;;14.20;10.18;;;;;;;;;;6210402;23;20024;-62
2023/07/14 06:59:57;;;;;;;13.35;9.95;;;;;;;;;;6210729;23;20020;-59
2023/07/14 07:02:23;;;;;;;14.82;9.70;;;;;;;;;;6207737;23;20650;-60
2023/07/14 07:04:49;;;;;;;14.70;8.43;;;;;;;;;;6211340;23;20051;-61
2023/07/14 07:07:15;;;;;;;13.50;9.23;;;;;;;;;;6211686;23;20020;-62
2023/07/14 07:09:41;;;;;;;12.68;8.27;;;;;;;;;;6211526;23;20488;-61
2023/07/14 07:12:09;;;;;;;13.90;7.60;;;;;;;;;;6211883;23;20016;-61
2023/07/14 07:14:36;;;;;;;9.68;6.95;;;;;;;;;;6211331;23;20012;-62
2023/07/14 07:17:02;;;;;;;11.85;7.93;;;;;;;;;;6211734;23;20022;-61
2023/07/14 07:19:28;;;;;;;12.85;7.60;;;;;;;;;;6211312;23;20624;-59
2023/07/14 07:21:55;;;;;;;13.00;7.95;;;;;;;;;;6212026;23;20108;-61
2023/07/14 07:24:21;;;;;;;10.35;6.95;;;;;;;;;;6210992;23;20013;-59
2023/07/14 07:26:47;;;;;;;9.77;6.50;;;;;;;;;;6211759;23;20027;-61
2023/07/14 07:29:14;;;;;;;10.27;5.85;;;;;;;;;;6211027;23;20513;-61
2023/07/14 07:31:40;;;;;;;9.55;6.97;;;;;;;;;;6183685;23;20024;-61
2023/07/14 07:34:08;;;;;;;11.90;7.28;;;;;;;;;;6211684;23;20016;-61
2023/07/14 07:36:34;;;;;;;11.02;6.30;;;;;;;;;;6211109;23;20021;-60
2023/07/14 07:39:00;;;;;;;12.18;6.90;;;;;;;;;;6208593;23;20012;-61
2023/07/14 07:41:27;;;;;;;11.52;6.68;;;;;;;;;;6210735;23;20020;-60
2023/07/14 07:43:54;;;;;;;8.18;5.93;;;;;;;;;;6211209;23;20058;-61
2023/07/14 07:46:23;;;;;;;10.93;5.97;;;;;;;;;;6211061;23;20024;-61
2023/07/14 07:48:50;;;;;;;11.77;5.47;;;;;;;;;;6208819;23;20513;-60
2023/07/14 07:51:16;;;;;;;10.82;5.78;;;;;;;;;;6212945;23;20099;-58
2023/07/14 07:53:42;;;;;;;8.00;5.20;;;;;;;;;;6213431;23;20035;-61
2023/07/14 07:56:10;;;;;;;7.75;4.88;;;;;;;;;;6214086;23;20013;-60
2023/07/14 07:58:36;;;;;;;9.23;4.50;;;;;;;;;;6213988;23;20024;-60
2023/07/14 08:01:04;;;;;;;8.55;3.72;;;;;;;;;;6213440;23;20047;-59
2023/07/14 08:03:31;;;;;;;10.48;4.50;;;;;;;;;;6213254;23;20424;-59
2023/07/14 08:06:00;;;;;;;4.05;3.40;;;;;;;;;;6213970;23;20020;-60
2023/07/14 08:08:27;;;;;;;14.73;5.00;;;;;;;;;;6213616;23;20055;-60
2023/07/14 08:10:53;;;;;;;8.68;3.92;;;;;;;;;;6213739;23;20012;-62
2023/07/14 08:13:19;;;;;;;5.18;3.60;;;;;;;;;;6212348;23;20016;-62
2023/07/14 08:15:45;;;;;;;8.35;3.95;;;;;;;;;;6213052;23;20012;-61
2023/07/14 08:18:11;;;;;;;5.15;3.70;;;;;;;;;;6213238;23;20701;-62
2023/07/14 08:20:38;;;;;;;5.57;3.22;;;;;;;;;;6213849;23;20083;-62
2023/07/14 08:23:04;;;;;;;6.35;3.10;;;;;;;;;;6212955;23;20332;-61
2023/07/14 08:25:30;;;;;;;5.85;3.20;;;;;;;;;;6213806;23;20016;-61
2023/07/14 08:27:56;;;;;;;6.72;3.10;;;;;;;;;;6213740;23;20021;-59
2023/07/14 08:30:23;;;;;;;4.55;2.80;;;;;;;;;;6213407;23;20036;-61
2023/07/14 08:32:49;;;;;;;4.55;2.97;;;;;;;;;;6213151;23;20100;-61
2023/07/14 08:35:19;;;;;;;4.28;2.63;;;;;;;;;;6211931;23;20015;-59
2023/07/14 08:37:45;;;;;;;6.03;2.75;;;;;;;;;;6213082;23;20031;-60
2023/07/14 08:40:31;;;;;;;7.60;2.55;;;;;;;;;;6212970;23;20012;-59
2023/07/14 08:43:06;;;;;;;9.55;3.08;;;;;;;;;;6213283;23;20154;-60
2023/07/14 08:45:32;;;;;;;4.65;2.70;;;;;;;;;;6213017;23;20062;-59
2023/07/14 08:48:01;;;;;;;5.68;3.47;;;;;;;;;;6213568;23;20538;-58
2023/07/14 08:50:28;;;;;;;3.83;2.53;;;;;;;;;;6213243;23;20015;-58
2023/07/14 08:52:57;;;;;;;6.47;2.30;;;;;;;;;;6212008;23;20090;-58
2023/07/14 08:55:28;;;;;;;5.68;2.28;;;;;;;;;;6209450;23;20016;-59
2023/07/14 08:58:00;;;;;;;3.78;2.35;;;;;;;;;;6212912;23;20108;-57
2023/07/14 09:00:30;;;;;;;6.20;2.97;;;;;;;;;;6212497;23;20020;-59
2023/07/14 09:03:14;;;;;;;8.25;2.58;;;;;;;;;;6213349;23;20099;-59
2023/07/14 09:05:51;;;;;;;6.93;2.47;;;;;;;;;;6212856;23;20020;-60
2023/07/14 09:08:17;;;;;;;7.90;2.60;;;;;;;;;;6212362;23;20019;-57
2023/07/14 09:10:43;;;;;;;6.90;2.75;;;;;;;;;;6186060;23;20020;-59
2023/07/14 09:13:20;;;;;;;5.03;2.50;;;;;;;;;;6212470;23;20091;-57
2023/07/14 09:15:46;;;;;;;5.15;2.38;;;;;;;;;;6213165;23;20023;-58
2023/07/14 09:18:34;;;;;;;4.38;2.20;;;;;;;;;;6212888;23;20052;-60
2023/07/14 09:21:18;;;;;;;6.18;3.03;;;;;;;;;;6212362;23;20016;-58
2023/07/14 09:24:03;;;;;;;4.25;2.20;;;;;;;;;;6210087;23;20075;-59
2023/07/14 09:26:31;;;;;;;5.63;2.85;;;;;;;;;;6210660;23;20095;-58
2023/07/14 09:28:58;;;;;;;5.93;3.20;;;;;;;;;;6212279;23;20076;-59
2023/07/14 09:31:37;;;;;;;5.00;2.75;;;;;;;;;;6212835;23;20581;-57
2023/07/14 09:34:04;;;;;;;5.32;2.72;;;;;;;;;;6212196;23;20111;-59
2023/07/14 09:36:35;;;;;;;4.90;3.00;;;;;;;;;;6209534;23;20047;-60
2023/07/14 09:39:03;;;;;;;4.70;3.10;;;;;;;;;;6213132;23;20467;-60
2023/07/14 09:41:29;;;;;;;6.57;3.30;;;;;;;;;;6212424;23;20012;-60
2023/07/14 09:43:57;;;;;;;8.05;3.25;;;;;;;;;;6209548;23;20017;-62
2023/07/14 09:46:24;;;;;;;6.57;3.10;;;;;;;;;;6212465;23;20048;-61
2023/07/14 09:48:52;;;;;;;6.57;3.40;;;;;;;;;;6212720;23;20107;-59
2023/07/14 09:51:23;;;;;;;6.22;3.03;;;;;;;;;;6209618;23;20051;-58
2023/07/14 09:54:05;;;;;;;5.90;2.95;;;;;;;;;;6212064;23;20084;-58
2023/07/14 09:56:32;;;;;;;8.20;2.80;;;;;;;;;;6210002;23;20012;-60
2023/07/14 09:59:03;;;;;;;7.13;3.30;;;;;;;;;;6212421;23;20050;-59
2023/07/14 10:01:29;;;;;;;5.97;3.25;;;;;;;;;;6210430;23;20116;-59
2023/07/14 10:03:58;;;;;;;7.05;3.50;;;;;;;;;;6212514;23;20056;-58
2023/07/14 10:06:30;;;;;;;5.80;3.40;;;;;;;;;;6211927;23;20470;-58
2023/07/14 10:09:00;;;;;;;12.40;4.90;;;;;;;;;;6212336;23;20031;-59
2023/07/14 10:11:30;;;;;;;7.10;3.50;;;;;;;;;;6211656;23;20455;-61
2023/07/14 10:14:01;;;;;;;8.70;3.90;;;;;;;;;;6211280;23;20017;-60
2023/07/14 10:16:32;;;;;;;6.00;3.22;;;;;;;;;;6212613;23;20511;-59
2023/07/14 10:19:00;;;;;;;8.18;3.50;;;;;;;;;;6209944;23;20431;-59
2023/07/14 10:21:30;;;;;;;8.60;3.90;;;;;;;;;;6212307;23;20519;-58
2023/07/14 10:23:57;;;;;;;7.15;3.63;;;;;;;;;;6212349;23;20023;-58
2023/07/14 10:26:24;;;;;;;7.72;3.97;;;;;;;;;;6212481;23;20116;-57
2023/07/14 10:28:51;;;;;;;5.50;3.13;;;;;;;;;;6211706;23;20035;-57
2023/07/14 10:31:24;;;;;;;6.40;3.00;;;;;;;;;;6212059;23;20034;-58
2023/07/14 10:34:13;;;;;;;6.72;3.55;;;;;;;;;;6211112;23;20047;-59
2023/07/14 10:36:40;;;;;;;4.88;3.35;;;;;;;;;;6211599;23;20092;-58
2023/07/14 10:39:12;;;;;;;5.25;2.60;;;;;;;;;;6212115;23;20013;-58
2023/07/14 10:41:40;;;;;;;7.45;3.10;;;;;;;;;;6211964;23;20090;-57
2023/07/14 10:44:26;;;;;;;6.40;2.83;;;;;;;;;;6211783;23;20024;-58
2023/07/14 10:46:55;;;;;;;5.75;2.47;;;;;;;;;;6212250;23;20096;-58
2023/07/14 10:49:23;;;;;;;4.88;3.05;;;;;;;;;;6211936;23;20099;-58
2023/07/14 10:51:51;;;;;;;5.90;2.83;;;;;;;;;;6212600;23;20012;-58
2023/07/14 10:54:21;;;;;;;4.97;2.33;;;;;;;;;;6211595;23;20016;-58
2023/07/14 10:56:55;;;;;;;4.10;2.33;;;;;;;;;;6212258;23;20013;-57
2023/07/14 10:59:34;;;;;;;4.65;2.78;;;;;;;;;;6212636;23;20016;-56
2023/07/14 11:02:06;;;;;;;4.68;2.65;;;;;;;;;;6212639;23;20352;-57
2023/07/14 11:04:35;;;;;;;4.22;2.30;;;;;;;;;;6211051;23;20027;-57
2023/07/14 11:07:13;;;;;;;3.53;2.17;;;;;;;;;;6212635;23;20440;-58
2023/07/14 11:09:39;;;;;;;5.18;2.33;;;;;;;;;;6212362;23;20313;-55
2023/07/14 11:12:12;;;;;;;3.78;2.50;;;;;;;;;;6210514;23;20062;-58
2023/07/14 11:14:50;;;;;;;3.88;2.13;;;;;;;;;;6210076;23;20013;-58
2023/07/14 11:17:16;;;;;;;4.43;2.38;;;;;;;;;;6211845;23;20392;-54
2023/07/14 11:19:49;;;;;;;7.25;2.38;;;;;;;;;;6210748;23;20017;-57
2023/07/14 11:22:23;;;;;;;3.70;2.53;;;;;;;;;;6211192;23;20009;-56
2023/07/14 11:24:55;;;;;;;4.90;2.33;;;;;;;;;;6211544;23;20044;-56
2023/07/14 11:27:24;;;;;;;6.10;2.53;;;;;;;;;;6209080;23;20019;-58
2023/07/14 11:29:50;;;;;;;3.70;2.22;;;;;;;;;;6183580;23;20013;-60
2023/07/14 11:32:20;;;;;;;4.75;2.17;;;;;;;;;;6211675;23;20021;-58
2023/07/14 11:34:51;;;;;;;5.15;2.45;;;;;;;;;;6210563;23;20013;-56
2023/07/14 11:37:27;;;;;;;4.80;2.65;;;;;;;;;;6211260;23;20020;-57
2023/07/14 11:39:56;;;;;;;5.50;2.65;;;;;;;;;;6210529;23;20105;-59
2023/07/14 11:42:22;;;;;;;5.40;2.53;;;;;;;;;;6210858;23;20336;-61
2023/07/14 11:44:50;;;;;;;4.82;2.60;;;;;;;;;;6211061;23;20012;-62
2023/07/14 11:47:36;;;;;;;3.75;2.75;;;;;;;;;;6211308;23;20066;-62
2023/07/14 11:50:20;;;;;;;5.25;2.70;;;;;;;;;;6210838;23;20012;-62
2023/07/14 11:53:05;;;;;;;4.35;2.42;;;;;;;;;;6211150;23;20012;-62
2023/07/14 11:55:32;;;;;;;5.13;2.63;;;;;;;;;;6211661;23;20017;-62
2023/07/14 11:58:22;;;;;;;3.30;2.72;;;;;;;;;;6211080;23;20029;-62
2023/07/14 12:00:52;;;;;;;5.25;3.40;;;;;;;;;;6196072;23;20020;-62
2023/07/14 12:03:43;;;;;;;6.38;3.17;;;;;;;;;;6210649;23;20017;-63
2023/07/14 12:06:23;;;;;;;5.03;2.47;;;;;;;;;;6196955;23;20426;-62
2023/07/14 12:09:02;;;;;;;6.57;3.13;;;;;;;;;;6211124;23;20016;-61
2023/07/14 12:11:29;;;;;;;8.18;3.00;;;;;;;;;;6208526;23;20293;-61
2023/07/14 12:13:57;;;;;;;6.25;2.80;;;;;;;;;;6210306;23;20044;-62
2023/07/14 12:16:25;;;;;;;6.57;3.22;;;;;;;;;;6209805;23;20017;-62
2023/07/14 12:18:57;;;;;;;6.72;3.38;;;;;;;;;;6209777;23;20024;-62
2023/07/14 12:21:26;;;;;;;4.43;3.28;;;;;;;;;;6210539;23;20055;-62
2023/07/14 12:23:53;;;;;;;4.47;2.85;;;;;;;;;;6210132;23;20017;-62
2023/07/14 12:26:28;;;;;;;4.45;2.78;;;;;;;;;;6210629;23;20072;-63
2023/07/14 12:28:54;;;;;;;5.45;2.95;;;;;;;;;;6209552;23;20017;-63
2023/07/14 12:31:20;;;;;;;5.80;2.72;;;;;;;;;;6210585;23;20116;-62
2023/07/14 12:33:47;;;;;;;5.57;3.00;;;;;;;;;;6210167;23;20451;-62
2023/07/14 12:36:15;;;;;;;5.68;3.20;;;;;;;;;;6210548;23;20013;-62
2023/07/14 12:38:45;;;;;;;7.25;3.35;;;;;;;;;;6211992;23;20122;-61
2023/07/14 12:41:12;;;;;;;8.30;3.78;;;;;;;;;;6212030;23;20023;-61
2023/07/14 12:43:43;;;;;;;6.30;3.47;;;;;;;;;;6210850;23;20017;-61
2023/07/14 12:46:30;;;;;;;7.53;3.10;;;;;;;;;;6212413;23;20023;-62
2023/07/14 12:49:01;;;;;;;9.10;3.35;;;;;;;;;;6190406;23;20505;-61
2023/07/14 12:51:28;;;;;;;7.35;4.13;;;;;;;;;;6212231;23;20019;-62
2023/07/14 12:54:01;;;;;;;7.10;3.75;;;;;;;;;;6211868;23;20436;-61
2023/07/14 12:56:30;;;;;;;8.35;3.88;;;;;;;;;;6211915;23;20539;-61
2023/07/14 12:58:58;;;;;;;6.45;3.70;;;;;;;;;;6211227;23;20378;-62
2023/07/14 13:01:24;;;;;;;6.15;3.95;;;;;;;;;;6212026;23;20111;-61
2023/07/14 13:03:50;;;;;;;9.75;3.58;;;;;;;;;;6211869;23;20022;-62
2023/07/14 13:06:17;;;;;;;5.82;3.55;;;;;;;;;;6212274;23;20017;-62
2023/07/14 13:08:47;;;;;;;8.30;3.92;;;;;;;;;;6212610;23;20020;-61
2023/07/14 13:11:21;;;;;;;7.70;3.80;;;;;;;;;;6212371;23;20031;-64
2023/07/14 13:13:50;;;;;;;7.43;3.63;;;;;;;;;;6210833;23;20383;-62
2023/07/14 13:16:16;;;;;;;4.50;3.40;;;;;;;;;;6212437;23;20009;-62
2023/07/14 13:18:53;;;;;;;6.80;3.63;;;;;;;;;;6211231;23;20424;-62
2023/07/14 13:21:30;;;;;;;4.38;3.17;;;;;;;;;;6212410;23;20048;-62
2023/07/14 13:23:56;;;;;;;5.68;3.78;;;;;;;;;;6185306;23;20013;-61
2023/07/14 13:26:23;;;;;;;5.15;3.47;;;;;;;;;;6211423;23;20020;-61
2023/07/14 13:28:59;;;;;;;9.70;3.63;;;;;;;;;;6210877;23;20047;-68
2023/07/14 13:31:28;;;;;;;6.80;3.17;;;;;;;;;;6210976;23;20016;-64
2023/07/14 13:33:56;;;;;;;5.60;3.35;;;;;;;;;;6203757;23;20087;-63
2023/07/14 13:36:23;;;;;;;6.55;3.88;;;;;;;;;;6210550;23;20020;-66
2023/07/14 13:38:49;;;;;;;6.70;3.35;;;;;;;;;;6211718;23;20104;-66
2023/07/14 13:41:20;;;;;;;7.18;3.47;;;;;;;;;;6209731;23;20016;-66
2023/07/14 13:43:48;;;;;;;5.03;2.70;;;;;;;;;;6210927;23;20024;-66
2023/07/14 13:46:26;;;;;;;6.00;3.13;;;;;;;;;;6210732;23;20519;-65
2023/07/14 13:48:52;;;;;;;4.70;3.13;;;;;;;;;;6209876;23;20013;-67
2023/07/14 13:51:20;;;;;;;7.88;3.55;;;;;;;;;;6211183;23;20013;-71
2023/07/14 13:53:47;;;;;;;6.47;3.53;;;;;;;;;;6211345;23;20043;-71
2023/07/14 13:56:15;;;;;;;5.10;2.90;;;;;;;;;;6211340;23;20285;-71
2023/07/14 13:58:41;;;;;;;7.05;3.22;;;;;;;;;;6184535;23;20012;-69
2023/07/14 14:01:08;;;;;;;5.57;2.85;;;;;;;;;;6185008;23;20396;-67
2023/07/14 14:03:34;;;;;;;6.55;2.88;;;;;;;;;;6211352;23;20013;-69
2023/07/14 14:06:01;;;;;;;4.25;2.88;;;;;;;;;;6211063;23;20530;-70
2023/07/14 14:08:27;;;;;;;3.78;3.10;;;;;;;;;;6185280;23;20056;-67
2023/07/14 14:10:53;;;;;;;7.60;3.35;;;;;;;;;;6211092;23;20012;-69
2023/07/14 14:13:19;;;;;;;4.68;3.47;;;;;;;;;;6210813;23;20452;-65
2023/07/14 14:15:46;;;;;;;4.85;2.97;;;;;;;;;;6212106;23;20015;-64
2023/07/14 14:18:17;;;;;;;5.40;2.90;;;;;;;;;;6211851;23;20016;-63
2023/07/14 14:20:43;;;;;;;;;;;;;;;;;;6213189;23;20021;-63
2023/07/14 14:23:14;;;;;;;5.93;2.78;;;;;;;;;;6213090;23;19922;-63
2023/07/14 14:25:40;;;;;;;6.07;2.55;;;;;;;;;;6212570;23;20092;-63
2023/07/14 14:28:06;;;;;;;4.30;2.28;;;;;;;;;;6213101;23;20091;-63
2023/07/14 14:30:38;;;;;;;5.95;2.40;;;;;;;;;;6213127;23;20494;-63
2023/07/14 14:33:04;;;;;;;4.50;2.33;;;;;;;;;;6212600;23;20719;-63
2023/07/14 14:35:31;;;;;;;4.68;2.13;;;;;;;;;;6212308;23;20021;-63
2023/07/14 14:37:58;;;;;;;4.82;2.47;;;;;;;;;;6213116;23;20040;-63
2023/07/14 14:40:25;;;;;;;5.43;3.08;;;;;;;;;;6211058;23;20024;-63
2023/07/14 14:43:00;;;;;;;6.70;2.80;;;;;;;;;;6212412;23;20019;-63
2023/07/14 14:45:29;;;;;;;7.30;2.40;;;;;;;;;;6213013;23;20016;-63